Time;durP1;ratioP1;P1;durP2;ratioP2;P2;SDS_P1;SDS_P2;PMS_P1;PMS_P2;Temp;Humidity;BMP_temperature;BMP_pressure;BME280_temperature;BME280_humidity;BME280_pressure;Samples;Min_cycle;Max_cycle;Signal;HPM_P1;HPM_P2
2021/12/07 00:01:04;;;;;;;27.35;13.95;;;;;;;2.28;94.24;98839.57;1715530;82;21486;-59
2021/12/07 00:03:31;;;;;;;30.82;14.83;;;;;;;2.25;95.57;98839.62;1709872;82;21008;-58
2021/12/07 00:05:58;;;;;;;35.35;14.35;;;;;;;2.22;97.02;98829.76;1716391;82;21115;-58
2021/12/07 00:10:12;;;;;;;24.20;15.13;;;;;;;2.14;97.30;98826.04;1803646;78;23290;-59
2021/12/07 00:12:42;;;;;;;25.70;15.70;;;;;;;1.93;96.30;98827.35;1761168;80;21455;-60
2021/12/07 00:15:11;;;;;;;29.50;14.93;;;;;;;1.84;96.60;98832.27;1769029;80;21450;-59
2021/12/07 00:17:40;;;;;;;21.33;14.47;;;;;;;1.83;98.76;98831.00;1774379;80;21435;-59
2021/12/07 00:20:14;;;;;;;24.50;14.23;;;;;;;1.94;97.45;98835.52;1768702;80;21495;-59
2021/12/07 00:22:41;;;;;;;30.95;12.60;;;;;;;2.08;96.57;98836.10;1762225;79;20985;-61
2021/12/07 00:25:09;;;;;;;20.77;12.85;;;;;;;2.10;98.16;98845.15;1752441;80;25087;-57
2021/12/07 00:27:36;;;;;;;34.53;13.98;;;;;;;2.05;98.44;98840.05;1761066;80;21777;-58
2021/12/07 00:30:07;;;;;;;18.25;12.58;;;;;;;2.04;99.64;98843.54;1775282;80;21617;-58
2021/12/07 00:32:40;;;;;;;20.50;12.68;;;;;;;2.09;99.59;98839.53;1757966;80;21450;-59
2021/12/07 00:35:24;;;;;;;25.08;11.95;;;;;;;2.19;98.02;98841.52;1767625;80;21585;-58
2021/12/07 00:37:46;;;;;;;21.87;11.35;;;;;;;2.19;97.28;98851.44;1764098;80;21544;-58
2021/12/07 00:40:15;;;;;;;15.45;10.85;;;;;;;2.18;96.52;98841.94;1762637;80;21865;-59
2021/12/07 00:42:42;;;;;;;15.00;10.03;;;;;;;2.19;94.83;98843.66;1763391;80;21569;-58
2021/12/07 00:45:13;;;;;;;16.82;11.15;;;;;;;2.23;93.77;98844.00;1771829;80;21451;-59
2021/12/07 00:47:40;;;;;;;18.17;11.57;;;;;;;2.36;92.29;98846.34;1760617;80;21443;-59
2021/12/07 00:50:08;;;;;;;19.48;10.78;;;;;;;2.39;91.91;98841.06;1761378;80;21419;-60
2021/12/07 00:52:35;;;;;;;16.20;11.60;;;;;;;2.36;91.54;98843.74;1757760;80;21423;-59
2021/12/07 00:55:05;;;;;;;21.37;10.68;;;;;;;2.31;91.48;98832.16;1768505;80;21526;-59
2021/12/07 00:57:33;;;;;;;13.72;9.85;;;;;;;2.30;91.15;98833.06;1761104;80;20962;-59
2021/12/07 01:00:00;;;;;;;14.90;11.18;;;;;;;2.35;90.71;98838.98;1733920;80;21553;-59
2021/12/07 01:02:27;;;;;;;14.75;11.18;;;;;;;2.37;89.91;98826.82;1775368;80;21517;-60
2021/12/07 01:04:58;;;;;;;21.25;12.43;;;;;;;2.39;89.19;98838.02;1764498;80;21539;-59
2021/12/07 01:07:51;;;;;;;25.77;11.68;;;;;;;2.32;89.53;98842.50;1761892;80;21537;-59
2021/12/07 01:26:11;;;;;;;15.38;9.68;;;;;;;2.36;88.43;98841.99;1752938;80;21423;-58
2021/12/07 01:28:43;;;;;;;15.78;10.08;;;;;;;2.47;88.10;98842.61;1760263;80;21422;-58
2021/12/07 01:33:59;;;;;;;18.85;9.23;;;;;;;2.45;87.90;98834.42;1748752;80;21446;-58
2021/12/07 01:36:40;;;;;;;12.78;9.40;;;;;;;2.42;88.12;98834.06;1744690;80;21459;-58
2021/12/07 01:47:03;;;;;;;10.85;8.35;;;;;;;2.57;87.73;98846.29;1764860;80;21533;-58
2021/12/07 01:52:31;;;;;;;9.85;8.00;;;;;;;2.60;87.25;98853.56;1758851;80;21061;-58
2021/12/07 01:59:49;;;;;;;13.83;10.08;;;;;;;2.63;87.19;98846.98;1760282;80;21514;-58
2021/12/07 02:02:18;;;;;;;12.88;9.85;;;;;;;2.61;87.27;98854.41;1769329;80;21779;-58
2021/12/07 02:04:45;;;;;;;15.88;10.60;;;;;;;2.65;87.21;98847.80;1759565;80;21426;-59
2021/12/07 02:07:13;;;;;;;15.55;9.75;;;;;;;2.78;86.98;98848.83;1761042;80;21530;-58
2021/12/07 02:09:45;;;;;;;16.23;9.70;;;;;;;2.81;86.71;98837.08;1759212;80;21785;-58
2021/12/07 02:12:12;;;;;;;23.87;10.40;;;;;;;2.77;86.86;98840.61;1749834;80;21428;-58
2021/12/07 02:14:41;;;;;;;15.23;10.65;;;;;;;2.74;86.72;98840.25;1758509;80;20939;-58
2021/12/07 02:17:14;;;;;;;21.77;11.48;;;;;;;2.69;86.69;98831.29;1753989;80;21530;-58
2021/12/07 02:19:42;;;;;;;17.35;11.75;;;;;;;2.81;86.62;98844.41;1736103;80;21455;-58
2021/12/07 02:22:10;;;;;;;20.53;11.30;;;;;;;2.83;86.38;98848.28;1739595;80;21811;-58
2021/12/07 02:24:39;;;;;;;19.35;11.83;;;;;;;2.77;86.46;98853.59;1706015;82;21506;-58
2021/12/07 02:27:07;;;;;;;20.20;11.20;;;;;;;2.71;86.74;98858.48;1743108;80;21527;-58
2021/12/07 02:29:34;;;;;;;;;;;;;;;2.69;86.79;98862.44;1750869;80;21511;-57
2021/12/07 02:32:04;;;;;;;15.08;10.35;;;;;;;2.68;86.10;98847.73;1753442;80;20473;-58
2021/12/07 02:34:32;;;;;;;12.88;9.80;;;;;;;2.58;85.40;98842.79;1739001;80;21842;-58
2021/12/07 02:36:59;;;;;;;12.60;9.65;;;;;;;2.42;85.13;98842.30;1744203;80;21468;-58
2021/12/07 02:39:37;;;;;;;17.35;10.50;;;;;;;2.27;85.14;98845.63;1748885;80;21412;-58
2021/12/07 02:42:06;;;;;;;17.65;11.35;;;;;;;2.20;85.54;98850.98;1730524;80;20991;-58
2021/12/07 02:44:35;;;;;;;16.70;10.90;;;;;;;2.19;85.65;98849.30;1747119;80;21581;-58
2021/12/07 02:47:04;;;;;;;20.97;12.10;;;;;;;2.27;85.54;98846.93;1761168;80;21819;-58
2021/12/07 02:49:32;;;;;;;21.65;13.08;;;;;;;2.34;85.60;98846.36;1744696;80;21916;-58
2021/12/07 02:52:03;;;;;;;22.60;12.93;;;;;;;2.36;85.72;98850.23;1746467;80;21435;-60
2021/12/07 02:54:33;;;;;;;22.30;12.25;;;;;;;2.33;86.14;98853.72;1749429;79;21021;-58
2021/12/07 02:57:01;;;;;;;21.10;12.28;;;;;;;2.32;86.48;98854.62;1747510;80;21487;-58
2021/12/07 02:59:29;;;;;;;20.00;11.73;;;;;;;2.37;86.60;98842.84;1735566;80;21783;-58
2021/12/07 03:02:02;;;;;;;18.65;12.63;;;;;;;2.47;86.43;98845.20;1763380;80;21432;-59
2021/12/07 03:04:34;;;;;;;24.20;13.18;;;;;;;2.53;86.30;98833.83;1755456;80;21005;-58
2021/12/07 03:07:14;;;;;;;17.00;11.80;;;;;;;2.54;86.46;98829.03;1741424;80;21499;-58
2021/12/07 03:10:11;;;;;;;18.07;12.10;;;;;;;2.53;86.41;98828.19;1737148;80;21498;-57
2021/12/07 03:26:09;;;;;;;14.80;10.55;;;;;;;2.71;85.43;98839.02;1745808;80;21724;-58
2021/12/07 03:28:43;;;;;;;16.45;10.93;;;;;;;2.82;85.18;98847.41;1753115;80;21503;-58
2021/12/07 03:31:11;;;;;;;17.90;11.73;;;;;;;2.84;84.99;98859.05;1750501;80;21459;-58
2021/12/07 03:33:39;;;;;;;17.48;11.63;;;;;;;2.79;84.92;98852.69;1745707;80;21472;-58
2021/12/07 03:36:08;;;;;;;14.87;9.90;;;;;;;2.77;85.00;98857.48;1762117;80;21503;-58
2021/12/07 03:38:35;;;;;;;14.35;10.30;;;;;;;2.75;84.97;98855.38;1746199;80;21819;-58
2021/12/07 03:41:04;;;;;;;13.88;9.90;;;;;;;2.84;84.80;98852.56;1755494;80;21542;-58
2021/12/07 03:43:32;;;;;;;14.23;10.78;;;;;;;2.87;84.57;98853.80;1755178;80;20983;-58
2021/12/07 03:46:00;;;;;;;13.03;10.60;;;;;;;2.83;84.68;98866.45;1756878;80;21447;-58
2021/12/07 03:48:29;;;;;;;14.15;11.25;;;;;;;2.78;84.61;98871.73;1743516;80;21502;-58
2021/12/07 03:50:57;;;;;;;16.15;11.45;;;;;;;2.70;84.64;98881.45;1755436;80;21777;-58
2021/12/07 03:53:24;;;;;;;15.78;10.88;;;;;;;2.66;84.59;98879.38;1746769;80;21495;-58
2021/12/07 03:55:51;;;;;;;13.93;10.60;;;;;;;2.71;84.78;98880.55;1756275;80;21486;-58
2021/12/07 03:58:18;;;;;;;15.17;11.23;;;;;;;2.72;84.73;98883.11;1750895;80;21577;-58
2021/12/07 04:00:46;;;;;;;15.00;11.55;;;;;;;2.70;84.79;98878.41;1738680;80;21518;-58
2021/12/07 04:03:15;;;;;;;16.42;11.57;;;;;;;2.66;84.83;98880.67;1751892;80;22037;-58
2021/12/07 04:05:47;;;;;;;13.40;10.10;;;;;;;2.65;84.78;98893.22;1752128;80;21609;-58
2021/12/07 04:08:24;;;;;;;11.78;9.23;;;;;;;2.70;84.71;98901.77;1748255;80;21522;-59
2021/12/07 04:10:53;;;;;;;13.80;10.05;;;;;;;2.80;84.61;98897.67;1756882;80;21539;-57
2021/12/07 04:13:22;;;;;;;14.93;10.80;;;;;;;2.79;84.58;98894.22;1753344;80;21471;-58
2021/12/07 04:15:49;;;;;;;13.58;10.55;;;;;;;2.69;84.67;98894.89;1757293;80;21940;-58
2021/12/07 04:18:16;;;;;;;13.90;9.87;;;;;;;2.64;84.75;98888.09;1745923;80;21585;-58
2021/12/07 04:20:43;;;;;;;13.77;9.97;;;;;;;2.64;84.89;98882.45;1757998;80;21535;-58
2021/12/07 04:23:10;;;;;;;13.53;10.10;;;;;;;2.77;84.65;98882.15;1749920;80;21412;-58
2021/12/07 04:25:37;;;;;;;13.43;10.13;;;;;;;2.80;84.52;98888.58;1754705;80;22159;-58
2021/12/07 04:28:04;;;;;;;11.78;9.75;;;;;;;2.78;84.58;98891.66;1745489;80;21795;-58
2021/12/07 04:30:40;;;;;;;12.23;9.00;;;;;;;2.77;84.60;98896.01;1755224;80;21400;-59
2021/12/07 04:33:09;;;;;;;12.60;8.78;;;;;;;2.72;84.49;98895.25;1744284;80;21471;-59
2021/12/07 04:35:37;;;;;;;12.63;8.53;;;;;;;2.75;84.50;98899.50;1755560;80;21581;-58
2021/12/07 04:38:04;;;;;;;10.98;8.88;;;;;;;2.86;84.29;98898.81;1747893;80;21475;-58
2021/12/07 04:40:31;;;;;;;12.07;9.40;;;;;;;2.88;84.14;98907.42;1756108;80;21842;-58
2021/12/07 04:42:59;;;;;;;14.33;9.98;;;;;;;2.85;84.00;98911.41;1748532;80;21387;-57
2021/12/07 04:46:35;;;;;;;11.18;9.78;;;;;;;2.82;84.02;98911.47;1756444;80;21466;-58
2021/12/07 04:58:48;;;;;;;13.18;10.32;;;;;;;2.85;83.57;98903.61;1697015;80;21362;-58
2021/12/07 05:01:15;;;;;;;13.25;10.13;;;;;;;2.83;83.56;98909.29;1747431;80;21092;-59
2021/12/07 05:03:43;;;;;;;12.33;9.90;;;;;;;2.83;83.50;98907.99;1743381;80;21503;-58
2021/12/07 05:06:11;;;;;;;15.40;10.72;;;;;;;2.92;83.30;98910.37;1758480;80;21779;-59
2021/12/07 05:08:55;;;;;;;15.72;11.48;;;;;;;2.89;83.03;98922.97;1745656;80;21423;-58
2021/12/07 05:11:25;;;;;;;21.52;13.72;;;;;;;2.80;83.29;98921.88;1748351;80;21464;-58
2021/12/07 05:13:54;;;;;;;19.17;13.05;;;;;;;2.76;83.49;98915.51;1756310;80;21419;-58
2021/12/07 05:16:31;;;;;;;19.07;13.50;;;;;;;2.68;83.49;98917.83;1745738;80;21537;-59
2021/12/07 05:24:11;;;;;;;21.62;14.80;;;;;;;2.76;83.23;98912.91;1743694;80;21499;-59
2021/12/07 05:37:48;;;;;;;20.75;12.35;;;;;;;2.58;83.12;98934.92;1745946;80;21503;-58
2021/12/07 05:40:17;;;;;;;21.75;13.10;;;;;;;2.51;83.13;98936.36;1750561;80;21415;-59
2021/12/07 05:42:45;;;;;;;20.32;13.20;;;;;;;2.40;83.40;98938.33;1741284;80;21535;-58
2021/12/07 05:45:25;;;;;;;22.90;13.32;;;;;;;2.31;83.64;98941.11;1754905;80;21546;-58
2021/12/07 05:47:52;;;;;;;24.55;14.23;;;;;;;2.30;83.84;98936.83;1740074;80;21673;-58
2021/12/07 05:50:22;;;;;;;27.37;14.63;;;;;;;2.37;83.77;98930.59;1749318;80;21461;-58
2021/12/07 05:52:49;;;;;;;24.98;16.07;;;;;;;2.35;83.89;98924.59;1751004;80;21614;-59
2021/12/07 05:55:16;;;;;;;22.77;14.07;;;;;;;2.33;84.05;98921.17;1756118;80;21491;-58
2021/12/07 05:57:43;;;;;;;24.87;14.15;;;;;;;2.28;84.03;98914.80;1751768;80;22037;-58
2021/12/07 06:00:17;;;;;;;19.90;13.03;;;;;;;2.25;84.13;98899.73;1752657;80;21530;-59
2021/12/07 06:02:44;;;;;;;21.95;14.23;;;;;;;2.22;84.04;98900.64;1751507;80;21488;-58
2021/12/07 06:05:11;;;;;;;21.10;14.03;;;;;;;2.25;84.01;98894.55;1751696;80;21400;-58
2021/12/07 06:07:38;;;;;;;20.37;13.48;;;;;;;2.26;84.24;98899.72;1748782;80;21479;-58
2021/12/07 06:10:06;;;;;;;20.00;13.83;;;;;;;2.28;84.33;98908.73;1760307;80;21795;-58
2021/12/07 06:12:35;;;;;;;19.12;13.03;;;;;;;2.21;84.25;98906.73;1749866;80;21534;-59
2021/12/07 06:15:03;;;;;;;20.75;13.95;;;;;;;2.16;84.40;98907.26;1758752;80;21514;-59
2021/12/07 06:17:30;;;;;;;;;;;;;;;2.13;84.39;98906.05;1738206;80;21577;-59
2021/12/07 06:19:57;;;;;;;22.17;13.57;;;;;;;2.08;84.71;98893.60;1754903;80;20149;-58
2021/12/07 06:22:25;;;;;;;24.65;14.07;;;;;;;2.21;84.57;98914.96;1742284;80;21938;-60
2021/12/07 06:24:52;;;;;;;22.73;14.27;;;;;;;2.21;84.71;98922.30;1747043;80;21522;-58
2021/12/07 06:27:19;;;;;;;24.00;14.43;;;;;;;2.17;84.73;98919.35;1747033;80;21430;-58
2021/12/07 06:29:46;;;;;;;21.65;13.30;;;;;;;2.18;84.75;98928.83;1761141;80;21510;-58
2021/12/07 06:32:13;;;;;;;19.05;13.55;;;;;;;2.21;84.67;98930.52;1747075;80;21637;-58
2021/12/07 06:34:41;;;;;;;21.02;13.98;;;;;;;2.33;84.39;98931.10;1746857;80;21748;-59
2021/12/07 06:37:08;;;;;;;19.35;13.88;;;;;;;2.39;84.28;98933.16;1743825;80;21657;-58
2021/12/07 06:39:35;;;;;;;22.00;14.80;;;;;;;2.37;84.34;98938.83;1746232;80;21650;-58
2021/12/07 06:42:02;;;;;;;28.67;16.23;;;;;;;2.37;84.31;98935.78;1745054;80;21510;-59
2021/12/07 06:44:29;;;;;;;;;;;;;;;2.36;84.29;98944.47;1752302;80;21538;-59
2021/12/07 06:46:56;;;;;;;25.17;15.03;;;;;;;2.39;84.37;98953.47;1757948;80;22029;-58
2021/12/07 06:49:23;;;;;;;20.25;14.07;;;;;;;2.54;84.07;98961.38;1738245;80;21580;-57
2021/12/07 06:51:50;;;;;;;21.65;14.83;;;;;;;2.58;84.03;98961.75;1751414;80;21522;-57
2021/12/07 06:54:17;;;;;;;25.08;15.50;;;;;;;2.58;83.94;98960.45;1755253;80;21467;-59
2021/12/07 06:56:44;;;;;;;25.17;15.30;;;;;;;2.56;83.80;98953.57;1753445;80;21468;-57
2021/12/07 06:59:12;;;;;;;20.80;14.23;;;;;;;2.53;83.75;98955.34;1744019;80;22119;-57
2021/12/07 07:01:39;;;;;;;20.23;13.98;;;;;;;2.51;84.10;98950.63;1756362;80;21468;-58
2021/12/07 07:04:08;;;;;;;21.35;14.13;;;;;;;2.58;83.75;98946.19;1748419;80;21416;-57
2021/12/07 07:06:36;;;;;;;20.23;14.38;;;;;;;2.64;83.67;98942.59;1748661;79;21422;-57
2021/12/07 07:09:03;;;;;;;25.57;15.43;;;;;;;2.60;83.68;98945.70;1747147;80;21494;-56
2021/12/07 07:11:31;;;;;;;20.15;14.30;;;;;;;2.59;83.87;98946.58;1756113;79;22015;-57
2021/12/07 07:13:58;;;;;;;24.75;14.43;;;;;;;2.58;83.85;98948.78;1761298;79;21623;-56
2021/12/07 07:16:25;;;;;;;19.87;13.70;;;;;;;2.60;83.84;98948.30;1751184;80;21494;-56
2021/12/07 07:18:52;;;;;;;22.45;15.30;;;;;;;2.73;83.85;98961.42;1761500;80;21503;-55
2021/12/07 07:21:19;;;;;;;20.62;14.23;;;;;;;2.79;83.58;98968.64;1752718;80;21558;-56
2021/12/07 07:23:47;;;;;;;22.67;15.00;;;;;;;2.73;83.53;98969.20;1762930;80;21744;-56
2021/12/07 07:26:14;;;;;;;20.62;14.28;;;;;;;2.72;83.53;98984.81;1754219;80;21617;-56
2021/12/07 07:28:41;;;;;;;19.43;13.77;;;;;;;2.70;83.49;98982.69;1746126;80;21426;-56
2021/12/07 07:31:10;;;;;;;22.42;15.03;;;;;;;2.71;83.27;98985.69;1763267;80;21490;-56
2021/12/07 07:33:37;;;;;;;22.17;15.08;;;;;;;2.76;83.22;98982.55;1760856;80;21582;-57
2021/12/07 07:36:04;;;;;;;20.55;14.87;;;;;;;2.77;83.19;98979.50;1758308;80;21828;-57
2021/12/07 07:38:31;;;;;;;25.00;17.10;;;;;;;2.73;83.27;98975.70;1760633;80;21697;-56
2021/12/07 07:40:58;;;;;;;24.65;16.05;;;;;;;2.71;83.30;98981.37;1758450;79;21546;-56
2021/12/07 07:43:25;;;;;;;23.60;15.60;;;;;;;2.69;83.13;98987.45;1762679;80;20977;-56
2021/12/07 07:45:59;;;;;;;26.97;17.20;;;;;;;2.70;83.13;98991.33;1757234;80;21439;-56
2021/12/07 07:48:26;;;;;;;23.42;16.80;;;;;;;2.79;83.00;98986.81;1754718;80;22058;-56
2021/12/07 07:50:53;;;;;;;24.18;17.60;;;;;;;2.84;82.84;98983.68;1756913;80;21562;-55
2021/12/07 07:53:21;;;;;;;25.45;16.70;;;;;;;2.76;82.47;98978.66;1754744;80;21416;-55
2021/12/07 07:55:50;;;;;;;22.45;16.48;;;;;;;2.62;82.88;98980.68;1755927;80;21550;-58
2021/12/07 07:58:18;;;;;;;22.70;14.95;;;;;;;2.55;83.13;98978.67;1760583;79;21073;-57
2021/12/07 08:00:46;;;;;;;20.48;14.07;;;;;;;2.53;83.03;98977.86;1754372;80;21788;-58
2021/12/07 08:03:13;;;;;;;19.62;13.88;;;;;;;2.52;83.48;98976.13;1759094;79;21498;-58
2021/12/07 08:05:40;;;;;;;20.72;13.40;;;;;;;2.53;83.52;98976.56;1757653;80;21444;-59
2021/12/07 08:08:08;;;;;;;20.40;14.03;;;;;;;2.55;83.85;98977.83;1746828;80;21530;-58
2021/12/07 08:10:35;;;;;;;22.45;14.07;;;;;;;2.52;83.76;98973.12;1760992;79;21722;-58
2021/12/07 08:13:05;;;;;;;20.15;12.53;;;;;;;2.56;83.86;98976.48;1747163;80;21493;-58
2021/12/07 08:15:38;;;;;;;17.50;12.58;;;;;;;2.64;83.71;98969.41;1743187;80;21487;-57
2021/12/07 08:18:05;;;;;;;18.67;13.18;;;;;;;2.81;83.43;98968.19;1750126;80;21455;-58
2021/12/07 08:20:33;;;;;;;18.52;12.10;;;;;;;2.86;82.97;98979.30;1750564;80;21608;-57
2021/12/07 08:23:04;;;;;;;20.90;13.40;;;;;;;2.84;82.86;98987.58;1735530;80;21499;-58
2021/12/07 08:25:29;;;;;;;17.85;12.30;;;;;;;2.72;82.76;98987.41;1743657;80;21787;-59
2021/12/07 08:27:57;;;;;;;15.43;11.80;;;;;;;2.62;83.02;98983.28;1759496;80;21566;-59
2021/12/07 08:30:24;;;;;;;13.00;10.10;;;;;;;2.80;83.13;98989.38;1749914;80;21526;-58
2021/12/07 08:32:51;;;;;;;16.20;10.60;;;;;;;2.80;83.13;98989.38;1746631;80;21553;-58
2021/12/07 08:35:19;;;;;;;13.50;10.27;;;;;;;2.87;82.66;98991.42;1758579;80;21638;-58
2021/12/07 08:37:49;;;;;;;;;;;;;;;2.80;82.74;98983.34;1760139;80;21647;-63
2021/12/07 08:40:23;;;;;;;15.03;10.55;;;;;;;2.75;82.82;98989.07;1742384;80;20468;-58
2021/12/07 08:42:50;;;;;;;13.72;10.20;;;;;;;2.65;82.95;98988.42;1743405;80;21081;-57
2021/12/07 08:45:19;;;;;;;14.95;10.08;;;;;;;2.60;82.79;98992.84;1749387;80;21491;-59
2021/12/07 08:47:46;;;;;;;13.13;10.03;;;;;;;2.64;82.94;98981.53;1744197;80;22005;-57
2021/12/07 09:05:47;;;;;;;14.00;9.73;;;;;;;2.64;82.83;98965.96;1734236;80;21451;-58
2021/12/07 09:08:15;;;;;;;10.95;9.15;;;;;;;2.60;82.54;98974.67;1752156;80;21823;-57
2021/12/07 09:10:42;;;;;;;10.78;7.78;;;;;;;2.52;82.70;98969.23;1763966;80;21502;-57
2021/12/07 09:13:09;;;;;;;10.90;8.08;;;;;;;2.46;82.72;98958.11;1769787;80;21565;-57
2021/12/07 09:15:38;;;;;;;10.90;7.45;;;;;;;2.45;82.86;98957.26;1745846;80;21503;-57
2021/12/07 09:18:06;;;;;;;8.65;7.35;;;;;;;2.49;82.71;98939.89;1770544;80;21479;-57
2021/12/07 09:20:33;;;;;;;10.72;7.67;;;;;;;2.51;82.50;98938.95;1763018;80;21840;-57
2021/12/07 09:23:00;;;;;;;;;;;;;;;2.39;82.54;98939.20;1743536;80;21420;-56
2021/12/07 09:25:27;;;;;;;8.15;6.60;;;;;;;2.27;82.93;98948.55;1738339;82;20413;-58
2021/12/07 09:27:55;;;;;;;9.80;7.72;;;;;;;2.21;83.25;98946.09;1749168;80;21502;-58
2021/12/07 09:30:22;;;;;;;10.80;7.78;;;;;;;2.18;83.37;98936.61;1755606;80;21590;-58
2021/12/07 09:32:50;;;;;;;8.63;7.70;;;;;;;2.26;83.50;98935.16;1757149;80;21700;-57
2021/12/07 09:35:17;;;;;;;11.08;7.10;;;;;;;2.31;83.59;98939.81;1758624;80;21532;-56
2021/12/07 09:37:45;;;;;;;10.13;7.17;;;;;;;2.30;83.54;98937.67;1746392;80;21072;-57
2021/12/07 09:40:15;;;;;;;8.40;7.00;;;;;;;2.27;83.83;98946.80;1753419;80;21649;-56
2021/12/07 09:42:42;;;;;;;8.68;7.30;;;;;;;2.29;83.75;98945.48;1751885;80;21665;-56
2021/12/07 09:45:11;;;;;;;10.63;6.75;;;;;;;2.38;83.98;98943.99;1753569;80;21818;-58
2021/12/07 09:47:39;;;;;;;10.15;7.55;;;;;;;2.51;83.39;98940.70;1762800;80;21579;-57
2021/12/07 13:43:48;;;;;;;7.78;4.10;;;;;;;1.12;87.25;98945.83;1675965;81;21433;-56
2021/12/07 13:46:22;;;;;;;4.55;3.45;;;;;;;1.03;87.26;98948.56;1668169;84;21046;-57
2021/12/07 13:48:51;;;;;;;4.37;3.80;;;;;;;1.12;87.42;98945.83;1693046;83;21818;-56
2021/12/07 13:51:20;;;;;;;4.42;4.00;;;;;;;1.20;87.31;98950.05;1753744;80;21484;-57
2021/12/07 13:53:48;;;;;;;5.85;4.28;;;;;;;1.11;87.33;98938.96;1730996;80;20992;-56
2021/12/07 13:56:15;;;;;;;;;;;;;;;1.07;87.51;98942.45;1721437;81;21549;-57
2021/12/07 13:59:01;;;;;;;4.87;4.40;;;;;;;1.09;87.37;98948.48;1746083;81;20429;-55
2021/12/07 14:01:30;;;;;;;4.60;4.10;;;;;;;1.21;87.27;98947.88;1754401;80;22216;-58
2021/12/07 14:03:58;;;;;;;4.80;4.30;;;;;;;1.19;87.09;98959.97;1714493;81;21437;-56
2021/12/07 14:14:11;;;;;;;5.33;4.40;;;;;;;1.10;86.96;98979.11;1745823;80;21687;-57
2021/12/07 14:16:38;;;;;;;5.62;4.47;;;;;;;1.06;86.79;98978.75;1753205;80;21840;-59
2021/12/07 14:19:05;;;;;;;6.10;4.80;;;;;;;1.00;86.95;98975.81;1750751;80;21482;-59
2021/12/07 14:21:33;;;;;;;6.22;5.08;;;;;;;0.93;87.07;98979.36;1755329;80;21724;-59
2021/12/07 14:24:05;;;;;;;5.45;4.95;;;;;;;0.99;87.06;98992.20;1725365;80;21711;-59
2021/12/07 14:26:36;;;;;;;6.65;5.37;;;;;;;1.07;87.02;98982.58;1725661;81;21048;-59
2021/12/07 14:29:09;;;;;;;5.42;4.92;;;;;;;1.01;87.04;98990.45;1724932;81;21577;-57
2021/12/07 14:31:51;;;;;;;5.53;5.00;;;;;;;0.93;87.26;98987.13;1725168;81;21530;-58
2021/12/07 14:34:25;;;;;;;5.62;4.90;;;;;;;0.88;87.40;98983.29;1727385;81;21584;-58
2021/12/07 14:36:59;;;;;;;5.70;5.20;;;;;;;0.93;87.39;98979.36;1723144;80;21557;-58
2021/12/07 14:39:29;;;;;;;5.42;4.90;;;;;;;0.96;87.40;98976.29;1750641;81;21551;-58
2021/12/07 14:42:03;;;;;;;6.05;5.45;;;;;;;1.01;87.18;98972.77;1755285;80;21911;-60
2021/12/07 14:44:38;;;;;;;5.87;5.28;;;;;;;0.91;87.17;98964.30;1705162;80;21489;-58
2021/12/07 14:47:07;;;;;;;7.55;5.47;;;;;;;0.91;87.39;98964.30;1679967;83;21454;-58
2021/12/07 14:49:40;;;;;;;6.95;5.30;;;;;;;0.98;87.17;98965.92;1681933;83;21149;-58
2021/12/07 14:52:16;;;;;;;6.42;5.53;;;;;;;0.97;86.96;98961.61;1678685;83;21660;-58
2021/12/07 14:54:43;;;;;;;6.37;5.35;;;;;;;0.88;87.23;98964.33;1695299;82;21498;-59
2021/12/07 14:57:10;;;;;;;5.12;4.62;;;;;;;0.79;87.51;98962.71;1690282;81;21428;-58
2021/12/07 14:59:41;;;;;;;7.67;5.12;;;;;;;0.87;87.60;98966.06;1700528;80;21139;-59
2021/12/07 15:02:09;;;;;;;5.85;4.72;;;;;;;0.95;87.40;98974.56;1705096;81;21579;-60
2021/12/07 15:04:37;;;;;;;6.12;5.47;;;;;;;0.99;87.28;98968.91;1708124;80;21082;-60
2021/12/07 15:07:13;;;;;;;5.45;4.95;;;;;;;0.94;87.38;98973.29;1708765;81;21855;-59
2021/12/07 15:09:40;;;;;;;5.80;5.08;;;;;;;0.89;87.19;98969.48;1704571;81;21514;-59
2021/12/07 15:12:09;;;;;;;7.28;5.17;;;;;;;0.94;87.46;98977.17;1719155;80;21543;-59
2021/12/07 15:14:37;;;;;;;5.78;5.17;;;;;;;1.02;87.20;98990.88;1721556;81;21688;-60
2021/12/07 15:17:06;;;;;;;5.87;5.27;;;;;;;1.03;87.25;98983.52;1712319;81;21559;-59
2021/12/07 15:19:33;;;;;;;5.05;4.50;;;;;;;0.99;87.04;98994.80;1696637;81;21796;-58
2021/12/07 15:22:02;;;;;;;7.00;4.57;;;;;;;0.91;87.09;98997.94;1697729;81;21564;-59
2021/12/07 15:24:33;;;;;;;7.45;5.03;;;;;;;0.92;86.87;99004.81;1710406;81;21546;-59
2021/12/07 15:27:02;;;;;;;4.72;4.33;;;;;;;0.99;86.82;99009.03;1733458;80;21530;-59
2021/12/07 15:29:31;;;;;;;5.12;4.62;;;;;;;0.92;86.69;99007.41;1728577;79;21063;-59
2021/12/07 15:32:07;;;;;;;7.00;5.20;;;;;;;0.83;87.10;99016.17;1726155;80;21801;-59
2021/12/07 15:34:39;;;;;;;4.78;4.33;;;;;;;0.84;87.24;99015.27;1711284;80;21896;-59
2021/12/07 15:37:10;;;;;;;7.40;5.53;;;;;;;0.94;87.15;99016.00;1718486;80;21486;-59
2021/12/07 15:39:44;;;;;;;5.65;4.83;;;;;;;1.05;87.04;99014.12;1696353;81;21564;-60
2021/12/07 15:42:19;;;;;;;6.55;4.90;;;;;;;1.00;86.76;99004.70;1704660;81;21585;-60
2021/12/07 15:44:53;;;;;;;5.70;5.12;;;;;;;0.92;86.98;99001.81;1723125;80;21802;-58
2021/12/07 15:47:23;;;;;;;6.03;5.03;;;;;;;0.90;87.07;99009.16;1696785;81;21474;-60
2021/12/07 15:49:57;;;;;;;5.30;4.40;;;;;;;0.93;87.28;99014.30;1716394;81;21476;-59
2021/12/07 15:52:34;;;;;;;4.22;3.87;;;;;;;0.96;87.31;99013.83;1709897;81;21565;-60
2021/12/07 15:55:09;;;;;;;4.53;4.13;;;;;;;0.96;87.65;99009.06;1682083;83;21501;-60
2021/12/07 15:57:56;;;;;;;5.28;4.45;;;;;;;0.93;87.28;99013.02;1691881;82;21662;-59
2021/12/07 16:00:29;;;;;;;5.03;4.30;;;;;;;0.84;87.20;99010.09;1710915;81;21218;-59
2021/12/07 16:02:59;;;;;;;5.03;4.22;;;;;;;0.89;87.24;99008.31;1725842;80;21569;-58
2021/12/07 16:05:26;;;;;;;4.05;3.65;;;;;;;0.86;87.20;99010.08;1711142;81;21471;-59
2021/12/07 16:07:55;;;;;;;4.42;4.03;;;;;;;0.76;87.72;99011.50;1709732;81;21638;-60
2021/12/07 16:10:25;;;;;;;5.40;3.77;;;;;;;0.72;88.13;99019.34;1710640;80;21941;-61
2021/12/07 16:13:08;;;;;;;3.87;3.47;;;;;;;0.80;88.41;99024.41;1717560;80;21436;-59
2021/12/07 16:15:37;;;;;;;3.75;3.40;;;;;;;0.92;88.01;99025.11;1717452;80;21583;-59
2021/12/07 16:18:05;;;;;;;3.83;3.52;;;;;;;0.88;87.81;99032.47;1696708;82;21010;-60
2021/12/07 16:20:33;;;;;;;3.77;3.45;;;;;;;0.82;87.75;99023.95;1687446;81;21434;-59
2021/12/07 16:23:00;;;;;;;3.58;3.05;;;;;;;0.77;87.95;99028.75;1709520;81;21786;-59
2021/12/07 16:25:27;;;;;;;3.50;3.20;;;;;;;0.82;88.05;99030.42;1716321;81;21500;-59
2021/12/07 16:27:55;;;;;;;4.45;3.72;;;;;;;0.94;87.85;99031.53;1720276;81;21482;-60
2021/12/07 16:30:22;;;;;;;3.83;3.52;;;;;;;0.97;87.41;99032.80;1705021;81;21068;-59
2021/12/07 16:32:50;;;;;;;4.75;3.75;;;;;;;0.80;87.85;99024.41;1696176;81;23498;-59
2021/12/07 16:35:17;;;;;;;2.92;2.67;;;;;;;0.71;88.05;99033.13;1707370;80;21932;-59
2021/12/07 16:37:44;;;;;;;3.93;3.33;;;;;;;0.74;87.95;99036.55;1667056;82;21594;-59
2021/12/07 16:40:16;;;;;;;3.95;3.55;;;;;;;0.88;88.00;99036.80;1715589;81;21660;-59
2021/12/07 16:42:48;;;;;;;3.62;3.05;;;;;;;0.87;87.67;99030.77;1708337;81;21529;-59
2021/12/07 16:45:15;;;;;;;3.35;3.00;;;;;;;0.78;87.74;99035.63;1715641;80;21557;-60
2021/12/07 16:47:44;;;;;;;3.40;3.10;;;;;;;0.70;88.28;99035.32;1726280;80;21691;-59
2021/12/07 16:50:11;;;;;;;4.15;3.10;;;;;;;0.75;88.44;99036.09;1709293;80;21580;-59
2021/12/07 16:52:39;;;;;;;4.20;3.75;;;;;;;0.87;88.10;99035.11;1710791;80;28745;-60
2021/12/07 16:55:09;;;;;;;3.65;3.35;;;;;;;0.83;88.35;99030.81;1684463;82;21108;-59
2021/12/07 16:57:36;;;;;;;3.90;3.27;;;;;;;0.78;88.43;99034.77;1682682;82;21046;-59
2021/12/07 17:00:07;;;;;;;3.43;3.20;;;;;;;0.74;88.47;99027.48;1705192;80;21814;-60
2021/12/07 17:02:37;;;;;;;4.97;3.22;;;;;;;0.81;88.33;99026.98;1704331;80;21582;-59
2021/12/07 17:05:08;;;;;;;3.20;2.90;;;;;;;0.92;88.16;99026.81;1730968;80;21660;-59
2021/12/07 17:07:37;;;;;;;3.37;3.08;;;;;;;0.91;87.91;99034.18;1718150;80;21554;-62
2021/12/07 17:10:05;;;;;;;3.60;3.30;;;;;;;0.83;87.85;99030.81;1739399;80;21989;-59
2021/12/07 17:12:32;;;;;;;3.52;3.22;;;;;;;0.78;88.02;99031.73;1718780;80;21820;-59
2021/12/07 17:15:00;;;;;;;3.27;2.98;;;;;;;0.79;88.03;99040.34;1703811;80;21080;-58
2021/12/07 17:17:27;;;;;;;4.03;3.63;;;;;;;0.89;88.31;99046.30;1737791;80;21510;-58